sensor_id;sensor_type;location;lat;lon;timestamp;P1;durP1;ratioP1;P2;durP2;ratioP2
5813;SDS011;2933;52.302;8.134;2023-05-15T00:01:33;4.00;;;3.70;;
5813;SDS011;2933;52.302;8.134;2023-05-15T00:06:36;5.53;;;4.30;;
5813;SDS011;2933;52.302;8.134;2023-05-15T00:11:38;4.33;;;4.10;;
5813;SDS011;2933;52.302;8.134;2023-05-15T00:16:39;4.63;;;4.23;;
5813;SDS011;2933;52.302;8.134;2023-05-15T00:21:43;11.30;;;4.60;;
5813;SDS011;2933;52.302;8.134;2023-05-15T00:26:44;11.33;;;4.20;;
5813;SDS011;2933;52.302;8.134;2023-05-15T00:31:46;4.53;;;4.23;;
5813;SDS011;2933;52.302;8.134;2023-05-15T00:36:49;5.20;;;4.80;;
5813;SDS011;2933;52.302;8.134;2023-05-15T00:41:51;4.33;;;4.13;;
5813;SDS011;2933;52.302;8.134;2023-05-15T00:46:53;4.63;;;4.33;;
5813;SDS011;2933;52.302;8.134;2023-05-15T00:51:57;4.60;;;4.27;;
5813;SDS011;2933;52.302;8.134;2023-05-15T00:57:02;4.67;;;4.23;;
5813;SDS011;2933;52.302;8.134;2023-05-15T01:02:06;6.57;;;4.60;;
5813;SDS011;2933;52.302;8.134;2023-05-15T01:07:09;4.90;;;4.50;;
5813;SDS011;2933;52.302;8.134;2023-05-15T01:12:10;4.47;;;4.13;;
5813;SDS011;2933;52.302;8.134;2023-05-15T01:17:15;7.30;;;4.40;;
5813;SDS011;2933;52.302;8.134;2023-05-15T01:22:35;5.30;;;4.80;;
5813;SDS011;2933;52.302;8.134;2023-05-15T01:27:45;11.33;;;4.70;;
5813;SDS011;2933;52.302;8.134;2023-05-15T01:32:51;4.90;;;4.60;;
5813;SDS011;2933;52.302;8.134;2023-05-15T01:38:07;6.20;;;4.90;;
5813;SDS011;2933;52.302;8.134;2023-05-15T01:43:17;6.50;;;5.33;;
5813;SDS011;2933;52.302;8.134;2023-05-15T01:48:22;5.17;;;4.83;;
5813;SDS011;2933;52.302;8.134;2023-05-15T01:53:26;5.13;;;4.53;;
5813;SDS011;2933;52.302;8.134;2023-05-15T01:58:30;5.37;;;4.97;;
5813;SDS011;2933;52.302;8.134;2023-05-15T02:03:32;5.27;;;4.87;;
5813;SDS011;2933;52.302;8.134;2023-05-15T02:08:35;6.30;;;4.63;;
5813;SDS011;2933;52.302;8.134;2023-05-15T02:13:38;5.70;;;5.30;;
5813;SDS011;2933;52.302;8.134;2023-05-15T02:18:42;5.33;;;4.93;;
5813;SDS011;2933;52.302;8.134;2023-05-15T02:23:43;6.30;;;5.77;;
5813;SDS011;2933;52.302;8.134;2023-05-15T02:28:49;6.83;;;5.10;;
5813;SDS011;2933;52.302;8.134;2023-05-15T02:34:04;5.73;;;5.20;;
5813;SDS011;2933;52.302;8.134;2023-05-15T02:39:13;5.80;;;5.30;;
5813;SDS011;2933;52.302;8.134;2023-05-15T02:44:17;5.47;;;5.00;;
5813;SDS011;2933;52.302;8.134;2023-05-15T02:49:20;5.10;;;4.70;;
5813;SDS011;2933;52.302;8.134;2023-05-15T02:54:22;5.80;;;5.30;;
5813;SDS011;2933;52.302;8.134;2023-05-15T02:59:25;6.10;;;5.60;;
5813;SDS011;2933;52.302;8.134;2023-05-15T03:04:27;10.23;;;5.10;;
5813;SDS011;2933;52.302;8.134;2023-05-15T03:09:28;5.87;;;5.37;;
5813;SDS011;2933;52.302;8.134;2023-05-15T03:14:31;5.53;;;5.13;;
5813;SDS011;2933;52.302;8.134;2023-05-15T03:19:33;5.90;;;5.30;;
5813;SDS011;2933;52.302;8.134;2023-05-15T03:24:34;5.00;;;4.60;;
5813;SDS011;2933;52.302;8.134;2023-05-15T03:29:37;5.33;;;4.87;;
5813;SDS011;2933;52.302;8.134;2023-05-15T03:34:39;6.80;;;5.00;;
5813;SDS011;2933;52.302;8.134;2023-05-15T03:39:40;5.40;;;4.90;;
5813;SDS011;2933;52.302;8.134;2023-05-15T03:44:43;4.80;;;4.37;;
5813;SDS011;2933;52.302;8.134;2023-05-15T03:49:44;5.00;;;4.70;;
5813;SDS011;2933;52.302;8.134;2023-05-15T03:54:46;5.30;;;4.90;;
5813;SDS011;2933;52.302;8.134;2023-05-15T03:59:49;5.70;;;4.67;;
5813;SDS011;2933;52.302;8.134;2023-05-15T04:04:50;5.30;;;4.93;;
5813;SDS011;2933;52.302;8.134;2023-05-15T04:09:52;8.00;;;4.93;;
5813;SDS011;2933;52.302;8.134;2023-05-15T04:14:55;5.10;;;4.70;;
5813;SDS011;2933;52.302;8.134;2023-05-15T04:19:59;5.40;;;4.90;;
5813;SDS011;2933;52.302;8.134;2023-05-15T04:25:00;5.53;;;5.17;;
5813;SDS011;2933;52.302;8.134;2023-05-15T04:30:04;6.30;;;5.70;;
5813;SDS011;2933;52.302;8.134;2023-05-15T04:35:06;6.83;;;5.23;;
5813;SDS011;2933;52.302;8.134;2023-05-15T04:40:10;6.57;;;5.97;;
5813;SDS011;2933;52.302;8.134;2023-05-15T04:45:15;9.17;;;6.33;;
5813;SDS011;2933;52.302;8.134;2023-05-15T04:50:17;6.70;;;6.10;;
5813;SDS011;2933;52.302;8.134;2023-05-15T04:55:18;7.90;;;5.93;;
5813;SDS011;2933;52.302;8.134;2023-05-15T05:00:21;9.50;;;7.00;;
5813;SDS011;2933;52.302;8.134;2023-05-15T05:05:23;7.60;;;6.80;;
5813;SDS011;2933;52.302;8.134;2023-05-15T05:10:25;9.60;;;7.37;;
5813;SDS011;2933;52.302;8.134;2023-05-15T05:15:29;10.87;;;8.60;;
5813;SDS011;2933;52.302;8.134;2023-05-15T05:20:30;9.87;;;8.23;;
5813;SDS011;2933;52.302;8.134;2023-05-15T05:25:32;11.23;;;8.57;;
5813;SDS011;2933;52.302;8.134;2023-05-15T05:30:35;11.27;;;8.97;;
5813;SDS011;2933;52.302;8.134;2023-05-15T05:35:36;11.93;;;10.03;;
5813;SDS011;2933;52.302;8.134;2023-05-15T05:40:38;19.60;;;13.77;;
5813;SDS011;2933;52.302;8.134;2023-05-15T05:45:41;26.57;;;17.20;;
5813;SDS011;2933;52.302;8.134;2023-05-15T05:50:42;26.63;;;18.30;;
5813;SDS011;2933;52.302;8.134;2023-05-15T05:55:44;34.60;;;19.83;;
5813;SDS011;2933;52.302;8.134;2023-05-15T06:00:47;32.53;;;19.73;;
5813;SDS011;2933;52.302;8.134;2023-05-15T06:05:49;35.40;;;19.93;;
5813;SDS011;2933;52.302;8.134;2023-05-15T06:10:51;36.37;;;21.57;;
5813;SDS011;2933;52.302;8.134;2023-05-15T06:15:54;38.90;;;21.63;;
5813;SDS011;2933;52.302;8.134;2023-05-15T06:20:56;42.03;;;21.10;;
5813;SDS011;2933;52.302;8.134;2023-05-15T06:25:59;35.27;;;22.40;;
5813;SDS011;2933;52.302;8.134;2023-05-15T06:31:02;35.13;;;21.23;;
5813;SDS011;2933;52.302;8.134;2023-05-15T06:36:04;35.60;;;21.03;;
5813;SDS011;2933;52.302;8.134;2023-05-15T06:41:06;37.20;;;21.93;;
5813;SDS011;2933;52.302;8.134;2023-05-15T06:46:08;38.40;;;21.27;;
5813;SDS011;2933;52.302;8.134;2023-05-15T06:51:10;42.27;;;21.30;;
5813;SDS011;2933;52.302;8.134;2023-05-15T06:56:11;38.07;;;21.37;;
5813;SDS011;2933;52.302;8.134;2023-05-15T07:01:14;35.67;;;20.80;;
5813;SDS011;2933;52.302;8.134;2023-05-15T07:06:16;45.80;;;21.13;;
5813;SDS011;2933;52.302;8.134;2023-05-15T07:11:17;39.57;;;23.53;;
5813;SDS011;2933;52.302;8.134;2023-05-15T07:16:20;38.93;;;22.20;;
5813;SDS011;2933;52.302;8.134;2023-05-15T07:21:22;40.47;;;21.77;;
5813;SDS011;2933;52.302;8.134;2023-05-15T07:26:23;47.03;;;24.00;;
5813;SDS011;2933;52.302;8.134;2023-05-15T07:31:26;46.20;;;24.87;;
5813;SDS011;2933;52.302;8.134;2023-05-15T07:36:28;43.70;;;24.40;;
5813;SDS011;2933;52.302;8.134;2023-05-15T07:41:29;45.43;;;24.40;;
5813;SDS011;2933;52.302;8.134;2023-05-15T07:46:34;45.40;;;26.80;;
5813;SDS011;2933;52.302;8.134;2023-05-15T07:51:35;46.90;;;25.33;;
5813;SDS011;2933;52.302;8.134;2023-05-15T07:56:37;49.53;;;26.27;;
5813;SDS011;2933;52.302;8.134;2023-05-15T08:01:40;51.20;;;27.07;;
5813;SDS011;2933;52.302;8.134;2023-05-15T08:06:41;45.90;;;24.90;;
5813;SDS011;2933;52.302;8.134;2023-05-15T08:11:43;48.53;;;25.17;;
5813;SDS011;2933;52.302;8.134;2023-05-15T08:16:48;41.60;;;23.53;;
5813;SDS011;2933;52.302;8.134;2023-05-15T08:21:50;40.13;;;22.27;;
5813;SDS011;2933;52.302;8.134;2023-05-15T08:26:51;36.83;;;21.00;;
5813;SDS011;2933;52.302;8.134;2023-05-15T08:31:54;33.93;;;20.80;;
5813;SDS011;2933;52.302;8.134;2023-05-15T08:36:57;37.17;;;20.53;;
5813;SDS011;2933;52.302;8.134;2023-05-15T08:42:01;44.70;;;22.40;;
5813;SDS011;2933;52.302;8.134;2023-05-15T08:47:07;39.37;;;22.13;;
5813;SDS011;2933;52.302;8.134;2023-05-15T08:52:09;39.87;;;21.27;;
5813;SDS011;2933;52.302;8.134;2023-05-15T08:57:10;39.70;;;20.60;;
5813;SDS011;2933;52.302;8.134;2023-05-15T09:02:14;37.60;;;20.93;;
5813;SDS011;2933;52.302;8.134;2023-05-15T09:07:16;36.03;;;19.80;;
5813;SDS011;2933;52.302;8.134;2023-05-15T09:12:17;39.43;;;21.57;;
5813;SDS011;2933;52.302;8.134;2023-05-15T09:17:21;35.77;;;20.00;;
5813;SDS011;2933;52.302;8.134;2023-05-15T09:22:23;39.57;;;20.83;;
5813;SDS011;2933;52.302;8.134;2023-05-15T09:27:25;37.90;;;19.53;;
5813;SDS011;2933;52.302;8.134;2023-05-15T09:32:27;37.33;;;19.40;;
5813;SDS011;2933;52.302;8.134;2023-05-15T09:37:29;36.47;;;20.20;;
5813;SDS011;2933;52.302;8.134;2023-05-15T09:42:33;41.13;;;21.20;;
5813;SDS011;2933;52.302;8.134;2023-05-15T09:47:36;40.30;;;19.27;;
5813;SDS011;2933;52.302;8.134;2023-05-15T09:52:38;35.57;;;18.60;;
5813;SDS011;2933;52.302;8.134;2023-05-15T09:57:40;35.60;;;19.30;;
5813;SDS011;2933;52.302;8.134;2023-05-15T10:02:42;38.03;;;19.17;;
5813;SDS011;2933;52.302;8.134;2023-05-15T10:07:46;30.33;;;17.13;;
5813;SDS011;2933;52.302;8.134;2023-05-15T10:12:54;35.20;;;17.70;;
5813;SDS011;2933;52.302;8.134;2023-05-15T10:18:00;37.20;;;18.27;;
5813;SDS011;2933;52.302;8.134;2023-05-15T10:23:04;34.53;;;18.47;;
5813;SDS011;2933;52.302;8.134;2023-05-15T10:28:07;40.13;;;19.90;;
5813;SDS011;2933;52.302;8.134;2023-05-15T10:33:11;33.33;;;18.40;;
5813;SDS011;2933;52.302;8.134;2023-05-15T10:38:13;32.47;;;17.63;;
5813;SDS011;2933;52.302;8.134;2023-05-15T10:43:16;34.63;;;18.23;;
5813;SDS011;2933;52.302;8.134;2023-05-15T10:48:21;39.50;;;19.50;;
5813;SDS011;2933;52.302;8.134;2023-05-15T10:53:24;30.13;;;17.67;;
5813;SDS011;2933;52.302;8.134;2023-05-15T10:58:25;37.13;;;18.37;;
5813;SDS011;2933;52.302;8.134;2023-05-15T11:03:36;35.53;;;17.87;;
5813;SDS011;2933;52.302;8.134;2023-05-15T11:08:38;31.43;;;17.50;;
5813;SDS011;2933;52.302;8.134;2023-05-15T11:14:10;30.70;;;17.50;;
5813;SDS011;2933;52.302;8.134;2023-05-15T11:19:21;31.73;;;17.90;;
5813;SDS011;2933;52.302;8.134;2023-05-15T11:24:28;31.97;;;17.53;;
5813;SDS011;2933;52.302;8.134;2023-05-15T11:29:30;30.80;;;17.60;;
5813;SDS011;2933;52.302;8.134;2023-05-15T11:34:33;30.27;;;16.63;;
5813;SDS011;2933;52.302;8.134;2023-05-15T11:39:37;30.70;;;16.40;;
5813;SDS011;2933;52.302;8.134;2023-05-15T11:44:39;28.53;;;16.73;;
5813;SDS011;2933;52.302;8.134;2023-05-15T11:49:42;31.17;;;17.10;;
5813;SDS011;2933;52.302;8.134;2023-05-15T11:54:43;29.90;;;17.00;;
5813;SDS011;2933;52.302;8.134;2023-05-15T11:59:46;27.73;;;15.30;;
5813;SDS011;2933;52.302;8.134;2023-05-15T12:04:49;26.70;;;16.17;;
5813;SDS011;2933;52.302;8.134;2023-05-15T12:09:51;27.53;;;15.33;;
5813;SDS011;2933;52.302;8.134;2023-05-15T12:14:56;32.67;;;14.90;;
5813;SDS011;2933;52.302;8.134;2023-05-15T12:19:59;32.83;;;17.13;;
5813;SDS011;2933;52.302;8.134;2023-05-15T12:25:01;26.93;;;14.83;;
5813;SDS011;2933;52.302;8.134;2023-05-15T12:30:04;25.70;;;15.53;;
5813;SDS011;2933;52.302;8.134;2023-05-15T12:35:09;25.27;;;14.67;;
5813;SDS011;2933;52.302;8.134;2023-05-15T12:40:12;23.30;;;14.53;;
5813;SDS011;2933;52.302;8.134;2023-05-15T12:45:14;28.13;;;13.60;;
5813;SDS011;2933;52.302;8.134;2023-05-15T12:50:19;27.40;;;14.43;;
5813;SDS011;2933;52.302;8.134;2023-05-15T12:55:22;26.73;;;15.33;;
5813;SDS011;2933;52.302;8.134;2023-05-15T13:00:25;27.77;;;14.70;;
5813;SDS011;2933;52.302;8.134;2023-05-15T13:05:31;18.97;;;12.60;;
5813;SDS011;2933;52.302;8.134;2023-05-15T13:10:35;23.03;;;13.80;;
5813;SDS011;2933;52.302;8.134;2023-05-15T13:15:38;22.63;;;14.30;;
5813;SDS011;2933;52.302;8.134;2023-05-15T13:20:42;22.80;;;13.50;;
5813;SDS011;2933;52.302;8.134;2023-05-15T13:25:46;29.20;;;16.50;;
5813;SDS011;2933;52.302;8.134;2023-05-15T13:30:47;24.37;;;15.53;;
5813;SDS011;2933;52.302;8.134;2023-05-15T13:35:50;21.47;;;12.00;;
5813;SDS011;2933;52.302;8.134;2023-05-15T13:40:52;21.47;;;13.77;;
5813;SDS011;2933;52.302;8.134;2023-05-15T13:45:53;22.77;;;13.30;;
5813;SDS011;2933;52.302;8.134;2023-05-15T13:50:56;19.83;;;11.73;;
5813;SDS011;2933;52.302;8.134;2023-05-15T13:55:58;21.43;;;11.87;;
5813;SDS011;2933;52.302;8.134;2023-05-15T14:01:01;14.70;;;10.43;;
5813;SDS011;2933;52.302;8.134;2023-05-15T14:06:06;9.10;;;6.47;;
5813;SDS011;2933;52.302;8.134;2023-05-15T14:11:08;10.87;;;8.53;;
5813;SDS011;2933;52.302;8.134;2023-05-15T14:16:10;15.20;;;10.20;;
5813;SDS011;2933;52.302;8.134;2023-05-15T14:21:12;13.57;;;9.47;;
5813;SDS011;2933;52.302;8.134;2023-05-15T14:26:14;18.30;;;9.33;;
5813;SDS011;2933;52.302;8.134;2023-05-15T14:31:15;13.80;;;8.37;;
5813;SDS011;2933;52.302;8.134;2023-05-15T14:36:18;10.40;;;8.00;;
5813;SDS011;2933;52.302;8.134;2023-05-15T14:41:20;8.60;;;7.10;;
5813;SDS011;2933;52.302;8.134;2023-05-15T14:46:21;10.50;;;8.03;;
5813;SDS011;2933;52.302;8.134;2023-05-15T14:51:24;9.57;;;7.53;;
5813;SDS011;2933;52.302;8.134;2023-05-15T14:56:26;9.37;;;8.37;;
5813;SDS011;2933;52.302;8.134;2023-05-15T15:01:27;14.50;;;8.80;;
5813;SDS011;2933;52.302;8.134;2023-05-15T15:06:31;9.10;;;7.30;;
5813;SDS011;2933;52.302;8.134;2023-05-15T15:11:32;7.00;;;6.33;;
5813;SDS011;2933;52.302;8.134;2023-05-15T15:16:34;6.67;;;6.00;;
5813;SDS011;2933;52.302;8.134;2023-05-15T15:21:37;10.10;;;6.17;;
5813;SDS011;2933;52.302;8.134;2023-05-15T15:26:38;7.20;;;5.80;;
5813;SDS011;2933;52.302;8.134;2023-05-15T15:31:40;6.47;;;5.77;;
5813;SDS011;2933;52.302;8.134;2023-05-15T15:36:43;5.77;;;5.27;;
5813;SDS011;2933;52.302;8.134;2023-05-15T15:41:44;6.60;;;4.83;;
5813;SDS011;2933;52.302;8.134;2023-05-15T15:46:46;5.27;;;4.90;;
5813;SDS011;2933;52.302;8.134;2023-05-15T15:51:49;5.40;;;4.97;;
5813;SDS011;2933;52.302;8.134;2023-05-15T15:56:50;6.70;;;4.90;;
5813;SDS011;2933;52.302;8.134;2023-05-15T16:01:52;9.80;;;4.70;;
5813;SDS011;2933;52.302;8.134;2023-05-15T16:06:55;5.67;;;4.10;;
5813;SDS011;2933;52.302;8.134;2023-05-15T16:11:56;7.00;;;4.40;;
5813;SDS011;2933;52.302;8.134;2023-05-15T16:16:58;5.20;;;4.80;;
5813;SDS011;2933;52.302;8.134;2023-05-15T16:22:01;6.03;;;5.50;;
5813;SDS011;2933;52.302;8.134;2023-05-15T16:27:03;12.60;;;6.73;;
5813;SDS011;2933;52.302;8.134;2023-05-15T16:32:05;9.20;;;7.00;;
5813;SDS011;2933;52.302;8.134;2023-05-15T16:37:09;10.73;;;7.00;;
5813;SDS011;2933;52.302;8.134;2023-05-15T16:42:11;11.17;;;7.47;;
5813;SDS011;2933;52.302;8.134;2023-05-15T16:47:12;8.10;;;7.30;;
5813;SDS011;2933;52.302;8.134;2023-05-15T16:52:15;7.77;;;7.07;;
5813;SDS011;2933;52.302;8.134;2023-05-15T16:57:16;7.13;;;6.33;;
5813;SDS011;2933;52.302;8.134;2023-05-15T17:02:18;9.43;;;5.93;;
5813;SDS011;2933;52.302;8.134;2023-05-15T17:07:21;6.90;;;6.20;;
5813;SDS011;2933;52.302;8.134;2023-05-15T17:12:22;6.33;;;5.83;;
5813;SDS011;2933;52.302;8.134;2023-05-15T17:17:24;7.33;;;6.43;;
5813;SDS011;2933;52.302;8.134;2023-05-15T17:22:27;8.27;;;6.00;;
5813;SDS011;2933;52.302;8.134;2023-05-15T17:27:28;7.17;;;6.47;;
5813;SDS011;2933;52.302;8.134;2023-05-15T17:32:31;14.17;;;6.60;;
5813;SDS011;2933;52.302;8.134;2023-05-15T17:37:34;9.80;;;7.03;;
5813;SDS011;2933;52.302;8.134;2023-05-15T17:42:36;9.20;;;6.43;;
5813;SDS011;2933;52.302;8.134;2023-05-15T17:47:38;5.97;;;5.47;;
5813;SDS011;2933;52.302;8.134;2023-05-15T17:52:40;6.00;;;5.43;;
5813;SDS011;2933;52.302;8.134;2023-05-15T17:57:42;5.57;;;5.07;;
5813;SDS011;2933;52.302;8.134;2023-05-15T18:02:43;6.27;;;5.67;;
5813;SDS011;2933;52.302;8.134;2023-05-15T18:07:47;5.27;;;4.83;;
5813;SDS011;2933;52.302;8.134;2023-05-15T18:12:49;6.77;;;6.07;;
5813;SDS011;2933;52.302;8.134;2023-05-15T18:17:51;7.40;;;5.77;;
5813;SDS011;2933;52.302;8.134;2023-05-15T18:22:53;10.37;;;6.43;;
5813;SDS011;2933;52.302;8.134;2023-05-15T18:27:55;9.23;;;6.07;;
5813;SDS011;2933;52.302;8.134;2023-05-15T18:32:56;7.73;;;6.47;;
5813;SDS011;2933;52.302;8.134;2023-05-15T18:38:00;9.97;;;7.00;;
5813;SDS011;2933;52.302;8.134;2023-05-15T18:43:01;7.37;;;6.30;;
5813;SDS011;2933;52.302;8.134;2023-05-15T18:48:03;6.17;;;5.60;;
5813;SDS011;2933;52.302;8.134;2023-05-15T18:53:06;8.57;;;6.43;;
5813;SDS011;2933;52.302;8.134;2023-05-15T18:58:08;11.07;;;6.80;;
5813;SDS011;2933;52.302;8.134;2023-05-15T19:03:09;8.47;;;7.30;;
5813;SDS011;2933;52.302;8.134;2023-05-15T19:08:12;7.13;;;6.43;;
5813;SDS011;2933;52.302;8.134;2023-05-15T19:13:13;8.77;;;6.60;;
5813;SDS011;2933;52.302;8.134;2023-05-15T19:18:15;8.87;;;6.70;;
5813;SDS011;2933;52.302;8.134;2023-05-15T19:23:18;7.23;;;6.13;;
5813;SDS011;2933;52.302;8.134;2023-05-15T19:28:20;7.10;;;6.43;;
5813;SDS011;2933;52.302;8.134;2023-05-15T19:33:22;9.20;;;6.90;;
5813;SDS011;2933;52.302;8.134;2023-05-15T19:38:24;8.00;;;7.10;;
5813;SDS011;2933;52.302;8.134;2023-05-15T19:43:26;7.30;;;6.50;;
5813;SDS011;2933;52.302;8.134;2023-05-15T19:48:27;7.13;;;6.43;;
5813;SDS011;2933;52.302;8.134;2023-05-15T19:53:30;8.27;;;6.97;;
5813;SDS011;2933;52.302;8.134;2023-05-15T19:58:32;10.50;;;6.93;;
5813;SDS011;2933;52.302;8.134;2023-05-15T20:03:33;7.87;;;7.07;;
5813;SDS011;2933;52.302;8.134;2023-05-15T20:08:36;8.30;;;7.07;;
5813;SDS011;2933;52.302;8.134;2023-05-15T20:13:38;10.87;;;7.50;;
5813;SDS011;2933;52.302;8.134;2023-05-15T20:18:40;9.73;;;7.53;;
5813;SDS011;2933;52.302;8.134;2023-05-15T20:23:45;9.20;;;6.77;;
5813;SDS011;2933;52.302;8.134;2023-05-15T20:28:48;9.47;;;7.07;;
5813;SDS011;2933;52.302;8.134;2023-05-15T20:33:49;10.03;;;6.93;;
5813;SDS011;2933;52.302;8.134;2023-05-15T20:38:52;8.57;;;7.57;;
5813;SDS011;2933;52.302;8.134;2023-05-15T20:43:54;10.70;;;7.73;;
5813;SDS011;2933;52.302;8.134;2023-05-15T20:48:56;10.57;;;8.13;;
5813;SDS011;2933;52.302;8.134;2023-05-15T20:53:59;15.30;;;9.27;;
5813;SDS011;2933;52.302;8.134;2023-05-15T20:59:00;16.57;;;9.93;;
5813;SDS011;2933;52.302;8.134;2023-05-15T21:04:02;13.77;;;8.60;;
5813;SDS011;2933;52.302;8.134;2023-05-15T21:09:05;14.40;;;9.13;;
5813;SDS011;2933;52.302;8.134;2023-05-15T21:14:07;14.10;;;9.30;;
5813;SDS011;2933;52.302;8.134;2023-05-15T21:19:09;13.17;;;8.83;;
5813;SDS011;2933;52.302;8.134;2023-05-15T21:24:12;17.70;;;10.10;;
5813;SDS011;2933;52.302;8.134;2023-05-15T21:29:13;15.90;;;8.83;;
5813;SDS011;2933;52.302;8.134;2023-05-15T21:34:15;11.43;;;7.83;;
5813;SDS011;2933;52.302;8.134;2023-05-15T21:39:17;12.93;;;7.60;;
5813;SDS011;2933;52.302;8.134;2023-05-15T21:44:19;11.50;;;8.40;;
5813;SDS011;2933;52.302;8.134;2023-05-15T21:49:21;12.93;;;8.00;;
5813;SDS011;2933;52.302;8.134;2023-05-15T21:54:24;10.27;;;7.90;;
5813;SDS011;2933;52.302;8.134;2023-05-15T21:59:25;14.47;;;7.27;;
5813;SDS011;2933;52.302;8.134;2023-05-15T22:04:27;11.40;;;7.40;;
5813;SDS011;2933;52.302;8.134;2023-05-15T22:09:30;13.33;;;7.60;;
5813;SDS011;2933;52.302;8.134;2023-05-15T22:14:33;12.73;;;7.03;;
5813;SDS011;2933;52.302;8.134;2023-05-15T22:19:34;7.07;;;5.80;;
5813;SDS011;2933;52.302;8.134;2023-05-15T22:24:38;9.20;;;5.80;;
5813;SDS011;2933;52.302;8.134;2023-05-15T22:29:39;8.40;;;6.23;;
5813;SDS011;2933;52.302;8.134;2023-05-15T22:34:41;10.87;;;6.03;;
5813;SDS011;2933;52.302;8.134;2023-05-15T22:39:44;8.03;;;5.93;;
5813;SDS011;2933;52.302;8.134;2023-05-15T22:44:45;7.00;;;5.37;;
5813;SDS011;2933;52.302;8.134;2023-05-15T22:49:47;6.80;;;4.80;;
5813;SDS011;2933;52.302;8.134;2023-05-15T23:00:20;5.53;;;4.40;;
5813;SDS011;2933;52.302;8.134;2023-05-15T23:05:21;7.63;;;4.43;;
5813;SDS011;2933;52.302;8.134;2023-05-15T23:10:25;3.80;;;3.50;;
5813;SDS011;2933;52.302;8.134;2023-05-15T23:15:26;3.10;;;2.90;;
5813;SDS011;2933;52.302;8.134;2023-05-15T23:20:28;3.60;;;3.40;;
5813;SDS011;2933;52.302;8.134;2023-05-15T23:25:31;5.57;;;3.47;;
5813;SDS011;2933;52.302;8.134;2023-05-15T23:30:32;3.97;;;3.57;;
5813;SDS011;2933;52.302;8.134;2023-05-15T23:35:34;3.07;;;2.87;;
5813;SDS011;2933;52.302;8.134;2023-05-15T23:40:36;2.47;;;2.27;;
5813;SDS011;2933;52.302;8.134;2023-05-15T23:45:38;2.87;;;2.67;;
5813;SDS011;2933;52.302;8.134;2023-05-15T23:50:39;2.73;;;2.60;;
5813;SDS011;2933;52.302;8.134;2023-05-15T23:55:42;2.57;;;2.37;;
